Atwood, Kentucky
Current Conditions -  °F | °C
As of 8:52 AM on Friday 19 Dec 2014 (Local Time) from KCVG Reporting Station
Overcast Overcast  
Wind Chill: 22°   Ceiling: 1700
Heat Index: 28°   Visibility: 9mi
Dew Point: 18°   Wind: 6mph
Humidity: 66%   Direction: 10°N
Pressure: 30.29"   Gusts: NA
Location:  38.8354°N, 84.5143°W
Report Text: KCVG 191352Z 01005KT 9SM OVC017 M02/M08 A3029 RMK AO2 SLP264 BINOVC T10221078
Loading
Personal Weather Stations






























Interactive Weather Map New forecast layout! Learn more

10-Day Weather Forecast

Advertisements
Track Severe Weather on mobile